EST,Max TemperatureF,Mean TemperatureF,Min TemperatureF,Max Dew PointF,MeanDew PointF,Min DewpointF,Max Humidity, Mean Humidity, Min Humidity, Max Sea Level PressureIn, Mean Sea Level PressureIn, Min Sea Level PressureIn, Max VisibilityMiles, Mean VisibilityMiles, Min VisibilityMiles, Max Wind SpeedMPH, Mean Wind SpeedMPH, Max Gust SpeedMPH,PrecipitationIn, CloudCover, Events, WindDirDegrees
2012-11-1,58,52,45,40,38,34,76,60,43,29.75,29.69,29.66,10,10,10,13,5,17,0.00,4,,287
2012-11-2,58,51,44,38,32,29,66,51,36,29.90,29.78,29.73,10,10,10,24,11,34,0.00,4,,312
2012-11-3,51,47,43,30,29,27,58,52,45,30.06,29.98,29.91,10,10,10,23,11,33,0.00,6,,325
2012-11-4,52,45,37,33,31,28,70,56,41,30.09,30.04,29.99,10,10,10,16,6,20,0.00,4,,330
2012-11-5,49,42,34,29,27,25,70,56,42,30.16,30.07,30.01,10,10,9,14,8,19,0.00,3,,356
2012-11-6,52,43,34,39,32,23,71,61,50,30.17,30.07,29.89,10,10,10,21,11,27,0.00,5,,24
2012-11-7,47,43,38,37,35,31,82,74,65,29.86,29.82,29.78,10,10,10,22,14,33,0.37,8,Rain,3
2012-11-8,54,46,38,32,25,19,76,51,26,30.00,29.89,29.84,,,,23,11,33,T,3,Rain,333
2012-11-9,56,47,38,34,29,24,79,59,38,30.25,30.15,30.01,10,10,10,18,7,26,0.00,0,,322
2012-11-10,62,50,37,46,39,32,83,61,39,30.41,30.33,30.24,10,10,10,13,5,16,0.00,0,,198
2012-11-11,64,55,46,52,47,42,86,71,56,30.51,30.46,30.41,10,5,0,16,8,20,0.00,0,Fog,205
2012-11-12,70,62,53,56,54,48,86,74,61,30.46,30.34,30.22,10,8,1,15,9,21,0.00,2,,189
2012-11-13,63,53,43,56,43,32,84,75,65,30.42,30.31,30.17,10,9,2,18,10,28,0.12,8,Rain,355
2012-11-14,51,44,36,34,30,27,75,59,42,30.48,30.43,30.37,10,10,10,17,10,22,0.00,3,,12
2012-11-15,54,49,43,39,36,34,71,63,54,30.37,30.31,30.27,10,10,10,20,10,24,0.00,4,,29
2012-11-16,54,46,38,35,32,27,70,56,41,30.40,30.31,30.25,10,10,9,14,8,19,T,5,Rain,6
2012-11-17,57,47,36,41,35,27,77,66,55,30.53,30.49,30.40,10,10,10,22,11,28,0.00,1,,30
2012-11-18,58,53,47,43,42,40,77,67,57,30.52,30.47,30.39,10,10,10,28,18,37,0.00,3,,50
2012-11-19,54,52,50,45,44,42,77,72,66,30.39,30.29,30.17,10,10,9,25,15,33,0.00,8,,40
2012-11-20,59,51,43,43,41,37,77,66,55,30.16,30.12,30.08,10,10,9,16,9,19,0.00,5,,25
2012-11-21,58,50,41,42,38,35,82,69,55,30.19,30.14,30.09,10,9,5,20,10,23,0.00,1,,29
2012-11-22,59,50,41,45,40,35,83,70,57,30.21,30.17,30.14,10,10,6,18,10,23,0.00,1,,33
2012-11-23,60,48,35,45,38,30,85,65,44,30.13,30.00,29.74,10,10,8,16,8,23,T,4,,298
2012-11-24,56,46,36,36,22,18,54,46,37,30.04,29.91,29.77,10,10,10,25,14,36,0.00,2,,334
2012-11-25,45,39,32,24,21,18,56,48,40,30.09,30.04,29.99,,,,18,9,24,0.00,0,,282
2012-11-26,55,46,36,36,29,24,76,53,30,30.24,30.15,30.02,10,10,10,12,5,15,0.00,0,,224
2012-11-27,57,49,41,46,41,34,86,69,51,30.21,30.16,30.07,10,8,6,21,7,27,0.07,8,Rain,349
2012-11-28,48,39,29,34,28,24,82,62,42,30.37,30.26,30.18,,,,17,9,24,0.00,4,,339
2012-11-29,51,41,30,33,25,22,70,51,32,30.47,30.40,30.36,,,,14,7,18,0.00,0,,306
2012-11-30,55,44,32,40,35,26,83,69,54,30.40,30.36,30.31,10,5,0,13,5,16,0.00,2,,220